Adelina D — MNRP6 — position and weather

sailwx.info

Track history (hours):
 
Tides and Currents Weather Stations Pressure Air Temp Water Temp Dewpoint Dewpoint Depression Visibility Wind Speed Wind Dir Waves Ship Positions

Adelina D

Last reported at 2017-Nov-24 14:30 UTC. Time now 2017-Nov-24 14:58 UTC.
Position N 57°02' E 011°43'.

Length 166 m; draft 8.6 m.

Type: Cargo ship. MMSI: 235011610.

Date/timePositionNaut miles runAvg speedWind from/ knotsBaromVisibWave heightAir tempDewpointWater temp
2017-Nov-24 14:30N 57°02' E 011°43'10610.1
2017-Nov-24 03:59N 55°18' E 011°04'510.7
2017-Nov-24 03:30N 55°13' E 011°06'510.8
2017-Nov-24 03:00N 55°08' E 011°03'612.7
2017-Nov-24 02:30N 55°01' E 011°02'612.3
2017-Nov-24 02:01N 54°56' E 010°56'612.6
2017-Nov-24 01:30N 54°50' E 010°52'713.0
2017-Nov-24 01:00N 54°44' E 010°53'612.7
2017-Nov-24 00:30N 54°39' E 011°01'713.4
2017-Nov-24 00:00N 54°36' E 011°11'713.4
2017-Nov-23 23:30N 54°33' E 011°21'713.3
2017-Nov-23 23:00N 54°30' E 011°32'713.1
2017-Nov-23 22:30N 54°27' E 011°42'1212.5
2017-Nov-23 21:32N 54°27' E 012°03'012.5
2017-Nov-23 21:30N 54°27' E 012°03'510.7
2017-Nov-23 21:00N 54°28' E 012°12'612.9
2017-Nov-23 20:30N 54°34' E 012°15'5412.1
2017-Nov-23 16:02N 54°59' E 013°39'212.0
2017-Nov-23 15:52N 54°59' E 013°42'811.9
2017-Nov-23 15:13N 55°02' E 013°55'311.8
2017-Nov-23 14:58N 55°03' E 013°59'611.5
2017-Nov-23 14:25N 55°08' E 014°08'511.2
2017-Nov-23 14:00N 55°11' E 014°13'510.9
2017-Nov-23 13:30N 55°15' E 014°20'611.0
2017-Nov-23 13:00N 55°19' E 014°26'611.3
2017-Nov-23 12:30N 55°24' E 014°32'610.9
2017-Nov-23 11:57N 55°27' E 014°41'711.5
2017-Nov-23 11:19N 55°31' E 014°52'411.7
2017-Nov-23 11:00N 55°33' E 014°57'611.6
2017-Nov-23 10:30N 55°36' E 015°06'611.4
2017-Nov-23 10:00N 55°39' E 015°14'611.4
2017-Nov-23 09:30N 55°42' E 015°23'611.7
2017-Nov-23 09:01N 55°45' E 015°32'611.9
2017-Nov-23 08:30N 55°48' E 015°42'611.9
2017-Nov-23 08:00N 55°51' E 015°51'612.0
2017-Nov-23 07:30N 55°54' E 015°60'612.0
2017-Nov-23 07:00N 55°57' E 016°09'611.9
2017-Nov-23 06:30N 55°60' E 016°18'612.0
2017-Nov-23 06:00N 56°03' E 016°27'611.9
2017-Nov-23 05:30N 56°06' E 016°36'711.4
2017-Nov-23 04:53N 56°11' E 016°45'511.9
2017-Nov-23 04:26N 56°16' E 016°48'512.2
2017-Nov-23 04:00N 56°22' E 016°50'1212.3
2017-Nov-23 02:59N 56°34' E 016°56'  
2017-Nov-20 00:30N 59°58' E 019°28'611.1
2017-Nov-20 00:00N 59°54' E 019°35'511.0
2017-Nov-19 23:30N 59°49' E 019°42'26913.9
2017-Nov-19 04:07N 55°21' E 018°59'317.1
2017-Nov-19 03:56N 55°18' E 018°59'717.1
2017-Nov-19 03:30N 55°11' E 019°00'917.2
2017-Nov-19 03:00N 55°02' E 019°02'917.3
2017-Nov-19 02:30N 54°54' E 019°03'917.3
2017-Nov-19 02:00N 54°45' E 019°05'917.1
2017-Nov-19 01:30N 54°37' E 019°07'917.4
2017-Nov-19 01:00N 54°29' E 019°01'815.3
2017-Nov-19 00:30N 54°25' E 018°49'4 8.2
2017-Nov-19 00:00N 54°23' E 018°43'0 0.3
2017-Nov-18 23:28N 54°23' E 018°43'0 0.0
2017-Nov-18 22:58N 54°23' E 018°43'0 0.0
2017-Nov-18 22:28N 54°23' E 018°43'0 0.0
2017-Nov-18 21:58N 54°23' E 018°43'0 0.0
2017-Nov-18 21:28N 54°23' E 018°43'0 0.0
2017-Nov-18 20:58N 54°23' E 018°43'0 0.0
2017-Nov-18 20:28N 54°23' E 018°43'0 0.0
2017-Nov-18 19:58N 54°23' E 018°43'0 0.0
2017-Nov-18 19:28N 54°23' E 018°43'0 0.0
2017-Nov-18 18:55N 54°23' E 018°43'0 0.0
2017-Nov-18 18:28N 54°23' E 018°43'0 0.0
2017-Nov-18 17:58N 54°23' E 018°43'0 0.0
2017-Nov-18 17:28N 54°23' E 018°43'0 0.0
2017-Nov-18 16:58N 54°23' E 018°43'0 0.0
2017-Nov-18 16:28N 54°23' E 018°43'0 0.0
2017-Nov-18 15:58N 54°23' E 018°43'0 0.0
2017-Nov-18 15:28N 54°23' E 018°43'0 0.0
2017-Nov-18 14:58N 54°23' E 018°43'0 0.0
2017-Nov-18 14:28N 54°23' E 018°43'0 0.0
2017-Nov-18 13:58N 54°23' E 018°43'0 0.0
2017-Nov-18 13:28N 54°23' E 018°43'0 0.0
2017-Nov-18 12:58N 54°23' E 018°43'0 0.0
2017-Nov-18 12:28N 54°23' E 018°43'0 0.0
2017-Nov-18 11:58N 54°23' E 018°43'0 0.0
2017-Nov-18 11:28N 54°23' E 018°43'0 0.0
2017-Nov-18 10:55N 54°23' E 018°43'0 0.0
2017-Nov-18 10:28N 54°23' E 018°43'0 0.0
2017-Nov-18 09:55N 54°23' E 018°43'0 0.1
2017-Nov-18 09:30N 54°23' E 018°43'3 5.5
2017-Nov-18 09:01N 54°25' E 018°46'4 7.2
2017-Nov-18 08:30N 54°26' E 018°52'4 8.4
2017-Nov-18 08:00N 54°29' E 018°58'4 9.0
2017-Nov-18 07:30N 54°33' E 019°01'5 9.3
2017-Nov-18 07:00N 54°37' E 019°04'3 6.4
2017-Nov-18 06:30N 54°40' E 019°03'3 5.7
2017-Nov-18 06:00N 54°43' E 019°02'3 5.7
2017-Nov-18 05:30N 54°46' E 019°00'3 6.9
2017-Nov-18 05:00N 54°48' E 018°56'4 7.3
2017-Nov-18 04:30N 54°50' E 018°51'4 7.5
2017-Nov-18 04:00N 54°53' E 018°46'4 7.7
2017-Nov-18 03:30N 54°55' E 018°40'4 8.1
2017-Nov-18 03:00N 54°57' E 018°35'510.7
2017-Nov-18 02:30N 54°57' E 018°25'511.1
2017-Nov-18 02:00N 54°57' E 018°16'911.0
2017-Nov-18 01:12N 54°56' E 018°00'10510.6
2017-Nov-17 15:21N 54°39' E 015°01'410.5
2017-Nov-17 15:00N 54°38' E 014°55'62 9.9
2017-Nov-17 08:47N 55°02' E 013°16'311.5
2017-Nov-17 08:30N 55°04' E 013°12'611.4
2017-Nov-17 08:00N 55°08' E 013°05'611.3
2017-Nov-17 07:30N 55°12' E 012°57'611.7
2017-Nov-17 07:00N 55°15' E 012°49'611.9
2017-Nov-17 06:30N 55°18' E 012°39'510.6
2017-Nov-17 06:00N 55°23' E 012°39'611.6
2017-Nov-17 05:30N 55°29' E 012°41'510.0
2017-Nov-17 05:00N 55°33' E 012°42'5 9.5
2017-Nov-17 04:30N 55°38' E 012°42'713.4
2017-Nov-17 04:00N 55°45' E 012°42'713.8
2017-Nov-17 03:30N 55°52' E 012°40'612.9
2017-Nov-17 03:00N 55°58' E 012°40'612.8
2017-Nov-17 02:30N 56°04' E 012°36'714.4
2017-Nov-17 02:00N 56°09' E 012°27'713.6
2017-Nov-17 01:30N 56°16' E 012°24'5714.4
2017-Nov-16 21:32N 57°11' E 011°55'213.8
2017-Nov-16 21:24N 57°12' E 011°53'614.1
2017-Nov-16 20:59N 57°18' E 011°49'714.2
2017-Nov-16 20:31N 57°24' E 011°43'713.8
2017-Nov-16 20:00N 57°30' E 011°38'612.4
2017-Nov-16 19:31N 57°36' E 011°37'510.1
2017-Nov-16 19:01N 57°39' E 011°45'4 8.4
2017-Nov-16 18:30N 57°41' E 011°52'0 0.1
2017-Nov-16 18:00N 57°41' E 011°52'0 0.0
2017-Nov-16 17:30N 57°41' E 011°52'0 0.0
2017-Nov-16 17:00N 57°41' E 011°52'0 0.0
2017-Nov-16 16:30N 57°41' E 011°52'0 0.0
2017-Nov-16 16:00N 57°41' E 011°52'0 0.0
2017-Nov-16 15:30N 57°41' E 011°52'0 0.0
2017-Nov-16 15:00N 57°41' E 011°52'0 0.0
2017-Nov-16 14:30N 57°41' E 011°52'0 0.0
2017-Nov-16 14:00N 57°41' E 011°52'0 0.0
2017-Nov-16 13:30N 57°41' E 011°52'0 0.0
2017-Nov-16 13:00N 57°41' E 011°52'0 0.0
2017-Nov-16 12:30N 57°41' E 011°52'0 0.0
2017-Nov-16 12:00N 57°41' E 011°52'0 0.0
2017-Nov-16 11:30N 57°41' E 011°52'0 0.0
2017-Nov-16 11:00N 57°41' E 011°52'0 0.0
2017-Nov-16 10:30N 57°41' E 011°52'0 0.0
2017-Nov-16 10:00N 57°41' E 011°52'0 0.0
2017-Nov-16 09:27N 57°41' E 011°52'0 0.0
2017-Nov-16 09:00N 57°41' E 011°52'0 0.0
2017-Nov-16 08:27N 57°41' E 011°52'0 0.0
2017-Nov-16 08:00N 57°41' E 011°52'0 0.0
2017-Nov-16 07:30N 57°41' E 011°52'0 0.0
2017-Nov-16 07:00N 57°41' E 011°52'0 0.0
2017-Nov-16 06:30N 57°41' E 011°52'0 0.0
2017-Nov-16 06:00N 57°41' E 011°52'1 1.5
2017-Nov-16 05:30N 57°41' E 011°50'4 8.9
2017-Nov-16 05:00N 57°39' E 011°43'611.5
2017-Nov-16 04:31N 57°37' E 011°33'5 9.7
2017-Nov-16 04:00N 57°40' E 011°25'510.8
2017-Nov-16 03:30N 57°43' E 011°17'612.0
2017-Nov-16 02:59N 57°46' E 011°08'712.2
2017-Nov-16 02:26N 57°50' E 010°57'612.8
2017-Nov-16 02:00N 57°53' E 010°49'713.5
2017-Nov-16 01:30N 57°54' E 010°37'45414.8
2017-Nov-14 18:44N 52°11' E 001°56'315.3
2017-Nov-14 18:30N 52°09' E 001°52'714.7
2017-Nov-14 18:00N 52°04' E 001°43'713.2
2017-Nov-14 17:30N 51°59' E 001°36'611.2
2017-Nov-14 17:00N 51°56' E 001°29'611.4
2017-Nov-14 16:31N 51°55' E 001°20'2 3.9
2017-Nov-14 15:58N 51°57' E 001°18'0 0.0
2017-Nov-14 15:28N 51°57' E 001°18'0 0.0
2017-Nov-14 14:58N 51°57' E 001°18'  
Track history (hours):
 
Tides and Currents Weather Stations Pressure Air Temp Water Temp Dewpoint Dewpoint Depression Visibility Wind Speed Wind Dir Waves Ship Positions

Adelina D

Last reported at 2017-Nov-24 14:30 UTC. Time now 2017-Nov-24 14:58 UTC.
Position N 57°02' E 011°43'.

Length 166 m; draft 8.6 m.

Type: Cargo ship. MMSI: 235011610.

Date/timePositionNaut miles runAvg speedWind from/ knotsBaromVisibWave heightAir tempDewpointWater temp
2017-Nov-24 14:30N 57°02' E 011°43'10610.1
2017-Nov-24 03:59N 55°18' E 011°04'510.7
2017-Nov-24 03:30N 55°13' E 011°06'510.8
2017-Nov-24 03:00N 55°08' E 011°03'612.7
2017-Nov-24 02:30N 55°01' E 011°02'612.3
2017-Nov-24 02:01N 54°56' E 010°56'612.6
2017-Nov-24 01:30N 54°50' E 010°52'713.0
2017-Nov-24 01:00N 54°44' E 010°53'612.7
2017-Nov-24 00:30N 54°39' E 011°01'713.4
2017-Nov-24 00:00N 54°36' E 011°11'713.4
2017-Nov-23 23:30N 54°33' E 011°21'713.3
2017-Nov-23 23:00N 54°30' E 011°32'713.1
2017-Nov-23 22:30N 54°27' E 011°42'1212.5
2017-Nov-23 21:32N 54°27' E 012°03'012.5
2017-Nov-23 21:30N 54°27' E 012°03'510.7
2017-Nov-23 21:00N 54°28' E 012°12'612.9
2017-Nov-23 20:30N 54°34' E 012°15'5412.1
2017-Nov-23 16:02N 54°59' E 013°39'212.0
2017-Nov-23 15:52N 54°59' E 013°42'811.9
2017-Nov-23 15:13N 55°02' E 013°55'311.8
2017-Nov-23 14:58N 55°03' E 013°59'611.5
2017-Nov-23 14:25N 55°08' E 014°08'511.2
2017-Nov-23 14:00N 55°11' E 014°13'510.9
2017-Nov-23 13:30N 55°15' E 014°20'611.0
2017-Nov-23 13:00N 55°19' E 014°26'611.3
2017-Nov-23 12:30N 55°24' E 014°32'610.9
2017-Nov-23 11:57N 55°27' E 014°41'711.5
2017-Nov-23 11:19N 55°31' E 014°52'411.7
2017-Nov-23 11:00N 55°33' E 014°57'611.6
2017-Nov-23 10:30N 55°36' E 015°06'611.4
2017-Nov-23 10:00N 55°39' E 015°14'611.4
2017-Nov-23 09:30N 55°42' E 015°23'611.7
2017-Nov-23 09:01N 55°45' E 015°32'611.9
2017-Nov-23 08:30N 55°48' E 015°42'611.9
2017-Nov-23 08:00N 55°51' E 015°51'612.0
2017-Nov-23 07:30N 55°54' E 015°60'612.0
2017-Nov-23 07:00N 55°57' E 016°09'611.9
2017-Nov-23 06:30N 55°60' E 016°18'612.0
2017-Nov-23 06:00N 56°03' E 016°27'611.9
2017-Nov-23 05:30N 56°06' E 016°36'711.4
2017-Nov-23 04:53N 56°11' E 016°45'511.9
2017-Nov-23 04:26N 56°16' E 016°48'512.2
2017-Nov-23 04:00N 56°22' E 016°50'1212.3
2017-Nov-23 02:59N 56°34' E 016°56'  
2017-Nov-20 00:30N 59°58' E 019°28'611.1
2017-Nov-20 00:00N 59°54' E 019°35'511.0
2017-Nov-19 23:30N 59°49' E 019°42'26913.9
2017-Nov-19 04:07N 55°21' E 018°59'317.1
2017-Nov-19 03:56N 55°18' E 018°59'717.1
2017-Nov-19 03:30N 55°11' E 019°00'917.2
2017-Nov-19 03:00N 55°02' E 019°02'917.3
2017-Nov-19 02:30N 54°54' E 019°03'917.3
2017-Nov-19 02:00N 54°45' E 019°05'917.1
2017-Nov-19 01:30N 54°37' E 019°07'917.4
2017-Nov-19 01:00N 54°29' E 019°01'815.3
2017-Nov-19 00:30N 54°25' E 018°49'4 8.2
2017-Nov-19 00:00N 54°23' E 018°43'0 0.3
2017-Nov-18 23:28N 54°23' E 018°43'0 0.0
2017-Nov-18 22:58N 54°23' E 018°43'0 0.0
2017-Nov-18 22:28N 54°23' E 018°43'0 0.0
2017-Nov-18 21:58N 54°23' E 018°43'0 0.0
2017-Nov-18 21:28N 54°23' E 018°43'0 0.0
2017-Nov-18 20:58N 54°23' E 018°43'0 0.0
2017-Nov-18 20:28N 54°23' E 018°43'0 0.0
2017-Nov-18 19:58N 54°23' E 018°43'0 0.0
2017-Nov-18 19:28N 54°23' E 018°43'0 0.0
2017-Nov-18 18:55N 54°23' E 018°43'0 0.0
2017-Nov-18 18:28N 54°23' E 018°43'0 0.0
2017-Nov-18 17:58N 54°23' E 018°43'0 0.0
2017-Nov-18 17:28N 54°23' E 018°43'0 0.0
2017-Nov-18 16:58N 54°23' E 018°43'0 0.0
2017-Nov-18 16:28N 54°23' E 018°43'0 0.0
2017-Nov-18 15:58N 54°23' E 018°43'0 0.0
2017-Nov-18 15:28N 54°23' E 018°43'0 0.0
2017-Nov-18 14:58N 54°23' E 018°43'0 0.0
2017-Nov-18 14:28N 54°23' E 018°43'0 0.0
2017-Nov-18 13:58N 54°23' E 018°43'0 0.0
2017-Nov-18 13:28N 54°23' E 018°43'0 0.0
2017-Nov-18 12:58N 54°23' E 018°43'0 0.0
2017-Nov-18 12:28N 54°23' E 018°43'0 0.0
2017-Nov-18 11:58N 54°23' E 018°43'0 0.0
2017-Nov-18 11:28N 54°23' E 018°43'0 0.0
2017-Nov-18 10:55N 54°23' E 018°43'0 0.0
2017-Nov-18 10:28N 54°23' E 018°43'0 0.0
2017-Nov-18 09:55N 54°23' E 018°43'0 0.1
2017-Nov-18 09:30N 54°23' E 018°43'3 5.5
2017-Nov-18 09:01N 54°25' E 018°46'4 7.2
2017-Nov-18 08:30N 54°26' E 018°52'4 8.4
2017-Nov-18 08:00N 54°29' E 018°58'4 9.0
2017-Nov-18 07:30N 54°33' E 019°01'5 9.3
2017-Nov-18 07:00N 54°37' E 019°04'3 6.4
2017-Nov-18 06:30N 54°40' E 019°03'3 5.7
2017-Nov-18 06:00N 54°43' E 019°02'3 5.7
2017-Nov-18 05:30N 54°46' E 019°00'3 6.9
2017-Nov-18 05:00N 54°48' E 018°56'4 7.3
2017-Nov-18 04:30N 54°50' E 018°51'4 7.5
2017-Nov-18 04:00N 54°53' E 018°46'4 7.7
2017-Nov-18 03:30N 54°55' E 018°40'4 8.1
2017-Nov-18 03:00N 54°57' E 018°35'510.7
2017-Nov-18 02:30N 54°57' E 018°25'511.1
2017-Nov-18 02:00N 54°57' E 018°16'911.0
2017-Nov-18 01:12N 54°56' E 018°00'10510.6
2017-Nov-17 15:21N 54°39' E 015°01'410.5
2017-Nov-17 15:00N 54°38' E 014°55'62 9.9
2017-Nov-17 08:47N 55°02' E 013°16'311.5
2017-Nov-17 08:30N 55°04' E 013°12'611.4
2017-Nov-17 08:00N 55°08' E 013°05'611.3
2017-Nov-17 07:30N 55°12' E 012°57'611.7
2017-Nov-17 07:00N 55°15' E 012°49'611.9
2017-Nov-17 06:30N 55°18' E 012°39'510.6
2017-Nov-17 06:00N 55°23' E 012°39'611.6
2017-Nov-17 05:30N 55°29' E 012°41'510.0
2017-Nov-17 05:00N 55°33' E 012°42'5 9.5
2017-Nov-17 04:30N 55°38' E 012°42'713.4
2017-Nov-17 04:00N 55°45' E 012°42'713.8
2017-Nov-17 03:30N 55°52' E 012°40'612.9
2017-Nov-17 03:00N 55°58' E 012°40'612.8
2017-Nov-17 02:30N 56°04' E 012°36'714.4
2017-Nov-17 02:00N 56°09' E 012°27'713.6
2017-Nov-17 01:30N 56°16' E 012°24'5714.4
2017-Nov-16 21:32N 57°11' E 011°55'213.8
2017-Nov-16 21:24N 57°12' E 011°53'614.1
2017-Nov-16 20:59N 57°18' E 011°49'714.2
2017-Nov-16 20:31N 57°24' E 011°43'713.8
2017-Nov-16 20:00N 57°30' E 011°38'612.4
2017-Nov-16 19:31N 57°36' E 011°37'510.1
2017-Nov-16 19:01N 57°39' E 011°45'4 8.4
2017-Nov-16 18:30N 57°41' E 011°52'0 0.1
2017-Nov-16 18:00N 57°41' E 011°52'0 0.0
2017-Nov-16 17:30N 57°41' E 011°52'0 0.0
2017-Nov-16 17:00N 57°41' E 011°52'0 0.0
2017-Nov-16 16:30N 57°41' E 011°52'0 0.0
2017-Nov-16 16:00N 57°41' E 011°52'0 0.0
2017-Nov-16 15:30N 57°41' E 011°52'0 0.0
2017-Nov-16 15:00N 57°41' E 011°52'0 0.0
2017-Nov-16 14:30N 57°41' E 011°52'0 0.0
2017-Nov-16 14:00N 57°41' E 011°52'0 0.0
2017-Nov-16 13:30N 57°41' E 011°52'0 0.0
2017-Nov-16 13:00N 57°41' E 011°52'0 0.0
2017-Nov-16 12:30N 57°41' E 011°52'0 0.0
2017-Nov-16 12:00N 57°41' E 011°52'0 0.0
2017-Nov-16 11:30N 57°41' E 011°52'0 0.0
2017-Nov-16 11:00N 57°41' E 011°52'0 0.0
2017-Nov-16 10:30N 57°41' E 011°52'0 0.0
2017-Nov-16 10:00N 57°41' E 011°52'0 0.0
2017-Nov-16 09:27N 57°41' E 011°52'0 0.0
2017-Nov-16 09:00N 57°41' E 011°52'0 0.0
2017-Nov-16 08:27N 57°41' E 011°52'0 0.0
2017-Nov-16 08:00N 57°41' E 011°52'0 0.0
2017-Nov-16 07:30N 57°41' E 011°52'0 0.0
2017-Nov-16 07:00N 57°41' E 011°52'0 0.0
2017-Nov-16 06:30N 57°41' E 011°52'0 0.0
2017-Nov-16 06:00N 57°41' E 011°52'1 1.5
2017-Nov-16 05:30N 57°41' E 011°50'4 8.9
2017-Nov-16 05:00N 57°39' E 011°43'611.5
2017-Nov-16 04:31N 57°37' E 011°33'5 9.7
2017-Nov-16 04:00N 57°40' E 011°25'510.8
2017-Nov-16 03:30N 57°43' E 011°17'612.0
2017-Nov-16 02:59N 57°46' E 011°08'712.2
2017-Nov-16 02:26N 57°50' E 010°57'612.8
2017-Nov-16 02:00N 57°53' E 010°49'713.5
2017-Nov-16 01:30N 57°54' E 010°37'45414.8
2017-Nov-14 18:44N 52°11' E 001°56'315.3
2017-Nov-14 18:30N 52°09' E 001°52'714.7
2017-Nov-14 18:00N 52°04' E 001°43'713.2
2017-Nov-14 17:30N 51°59' E 001°36'611.2
2017-Nov-14 17:00N 51°56' E 001°29'611.4
2017-Nov-14 16:31N 51°55' E 001°20'2 3.9
2017-Nov-14 15:58N 51°57' E 001°18'0 0.0
2017-Nov-14 15:28N 51°57' E 001°18'0 0.0
2017-Nov-14 14:58N 51°57' E 001°18'  

Dump ship's entire track history